Terminal Aerodrome Forecast
Issued by NWS

Current Version | Previous Version | Graphics & Text | Print | Product List | Glossary On
Versions: 1 2 3 4 5 6 7 8 9 10 11 12 13 14 15 16 17 18 19 20 21
000
FTUS41 KPBZ 201738 CCA
TAFMGW
TAF COR
KMGW 201738Z 2018/2118 23015G22KT P6SM VCTS BKN035CB BKN050CB
     FM210300 26010G16KT P6SM BKN025
     FM211500 24015G25KT P6SM BKN050=

USA.gov is the U.S. government's official web portal to all federal, state and local government web resources and services.